createdAt,value
2023-02-27T00:00:55.346Z,98895.56
2023-02-27T00:01:56.836Z,98891.06
2023-02-27T00:02:58.714Z,98901.69
2023-02-27T00:04:01.086Z,98890.38
2023-02-27T00:05:02.663Z,98891.88
2023-02-27T00:06:04.656Z,98908.56
2023-02-27T00:07:07.214Z,98900.56
2023-02-27T00:08:08.739Z,98898.00
2023-02-27T00:09:10.630Z,98899.34
2023-02-27T00:10:12.649Z,98896.69
2023-02-27T00:11:14.315Z,98894.47
2023-02-27T00:12:15.843Z,98893.44
2023-02-27T00:13:17.485Z,98895.41
2023-02-27T00:14:19.091Z,98883.72
2023-02-27T00:15:20.734Z,98894.88
2023-02-27T00:16:22.315Z,98896.56
2023-02-27T00:17:27.977Z,98890.09
2023-02-27T00:18:29.478Z,98897.72
2023-02-27T00:19:31.207Z,98902.59
2023-02-27T00:20:37.801Z,98888.78
2023-02-27T00:21:39.845Z,98893.63
2023-02-27T00:22:41.595Z,98893.22
2023-02-27T00:23:43.420Z,98898.06
2023-02-27T00:24:44.927Z,98895.50
2023-02-27T00:25:46.497Z,98887.00
2023-02-27T00:26:47.961Z,98903.19
2023-02-27T00:27:49.464Z,98892.66
2023-02-27T00:28:50.992Z,98899.22
2023-02-27T00:29:52.480Z,98899.06
2023-02-27T00:30:54.200Z,98897.72
2023-02-27T00:31:55.899Z,98898.22
2023-02-27T00:32:57.785Z,98899.06
2023-02-27T00:33:59.285Z,98898.34
2023-02-27T00:35:00.757Z,98902.34
2023-02-27T00:36:02.502Z,98902.41
2023-02-27T00:37:04.026Z,98905.47
2023-02-27T00:38:05.959Z,98897.81
2023-02-27T00:39:07.539Z,98897.81
2023-02-27T00:40:09.773Z,98902.31
2023-02-27T00:41:11.286Z,98887.78
2023-02-27T00:42:12.842Z,98892.91
2023-02-27T00:43:14.631Z,98894.91
2023-02-27T00:44:16.333Z,98897.06
2023-02-27T00:45:18.545Z,98891.72
2023-02-27T00:46:20.164Z,98899.69
2023-02-27T00:47:21.742Z,98892.88
2023-02-27T00:48:23.427Z,98891.22
2023-02-27T00:49:25.555Z,98887.09
2023-02-27T00:50:27.082Z,98884.50
2023-02-27T00:51:28.742Z,98892.78
2023-02-27T00:52:30.360Z,98890.88
2023-02-27T00:53:31.851Z,98890.63
2023-02-27T00:54:33.349Z,98885.16
2023-02-27T00:55:34.958Z,98887.47
2023-02-27T00:56:36.858Z,98884.50
2023-02-27T00:57:39.248Z,98858.53
2023-02-27T00:58:41.127Z,98893.34
2023-02-27T00:59:42.710Z,98896.50
2023-02-27T01:00:44.322Z,98892.56
2023-02-27T01:01:45.869Z,98898.09
2023-02-27T01:02:47.411Z,98884.94
2023-02-27T01:03:48.982Z,98888.41
2023-02-27T01:04:50.478Z,98894.06
2023-02-27T01:05:52.072Z,98876.91
2023-02-27T01:06:53.579Z,98887.91
2023-02-27T01:07:55.607Z,98891.88
2023-02-27T01:08:57.102Z,98890.50
2023-02-27T01:09:59.025Z,98881.31
2023-02-27T01:11:00.660Z,98861.66
2023-02-27T01:12:02.185Z,98878.47
2023-02-27T01:13:03.951Z,98882.31
2023-02-27T01:14:05.527Z,98886.22
2023-02-27T01:15:07.847Z,98887.88
2023-02-27T01:16:10.514Z,98884.22
2023-02-27T01:17:12.090Z,98866.34
2023-02-27T01:18:13.893Z,98890.50
2023-02-27T01:19:15.662Z,98886.25
2023-02-27T01:20:17.248Z,98886.91
2023-02-27T01:21:18.791Z,98879.53
2023-02-27T01:22:20.303Z,98872.31
2023-02-27T01:23:22.495Z,98877.81
2023-02-27T01:24:24.037Z,98879.31
2023-02-27T01:25:25.529Z,98883.19
2023-02-27T01:26:27.042Z,98873.19
2023-02-27T01:27:28.537Z,98870.91
2023-02-27T01:28:30.432Z,98881.69
2023-02-27T01:29:31.932Z,98878.03
2023-02-27T01:30:33.436Z,98873.56
2023-02-27T01:31:34.985Z,98881.56
2023-02-27T01:32:36.899Z,98873.84
2023-02-27T01:33:38.414Z,98880.25
2023-02-27T01:34:39.937Z,98876.75
2023-02-27T01:35:41.437Z,98878.88
2023-02-27T01:36:42.958Z,98882.53
2023-02-27T01:37:44.988Z,98879.53
2023-02-27T01:38:46.785Z,98871.81
2023-02-27T01:39:48.316Z,98869.81
2023-02-27T01:40:49.785Z,98874.69
2023-02-27T01:41:51.286Z,98879.19
2023-02-27T01:42:53.133Z,98883.88
2023-02-27T01:43:55.573Z,98890.38
2023-02-27T01:45:12.700Z,98881.81
2023-02-27T01:46:14.264Z,98887.00
2023-02-27T01:47:15.791Z,98867.50
2023-02-27T01:48:27.510Z,98873.84
2023-02-27T01:49:31.869Z,98887.81
2023-02-27T01:50:34.066Z,98886.84
2023-02-27T01:51:45.148Z,98879.81
2023-02-27T01:52:59.411Z,98892.38
2023-02-27T01:54:00.997Z,98888.53
2023-02-27T01:55:03.230Z,98890.88
2023-02-27T01:56:25.750Z,98890.50
2023-02-27T01:57:27.263Z,98887.84
2023-02-27T01:58:28.751Z,98889.72
2023-02-27T01:59:30.279Z,98893.25
2023-02-27T02:00:32.032Z,98889.66
2023-02-27T02:01:34.400Z,98894.13
2023-02-27T02:02:40.651Z,98896.81
2023-02-27T02:03:56.494Z,98902.63
2023-02-27T02:04:58.079Z,98896.25
2023-02-27T02:06:00.534Z,98901.59
2023-02-27T02:07:10.115Z,98900.66
2023-02-27T02:08:12.078Z,98901.47
2023-02-27T02:09:14.297Z,98900.50
2023-02-27T02:10:16.417Z,98907.34
2023-02-27T02:11:18.497Z,98906.31
2023-02-27T02:12:22.851Z,98906.97
2023-02-27T02:13:24.384Z,98899.97
2023-02-27T02:14:25.877Z,98890.50
2023-02-27T02:15:33.427Z,98917.69
2023-02-27T02:16:44.663Z,98915.69
2023-02-27T02:18:04.150Z,98908.34
2023-02-27T02:19:21.211Z,98915.00
2023-02-27T02:21:06.737Z,98919.50
2023-02-27T02:22:14.100Z,98924.84
2023-02-27T02:23:36.889Z,98920.66
2023-02-27T02:25:17.816Z,98915.13
2023-02-27T02:26:45.161Z,98912.25
2023-02-27T02:27:52.820Z,98917.88
2023-02-27T02:29:13.180Z,98925.91
2023-02-27T02:30:36.562Z,98909.25
2023-02-27T02:32:03.013Z,98920.63
2023-02-27T02:33:04.555Z,98921.28
2023-02-27T02:34:23.389Z,98917.63
2023-02-27T02:35:36.828Z,98922.59
2023-02-27T02:37:17.314Z,98927.44
2023-02-27T02:38:24.585Z,98920.63
2023-02-27T02:39:55.511Z,98920.16
2023-02-27T02:41:16.914Z,98919.66
2023-02-27T02:42:59.289Z,98921.81
2023-02-27T02:44:14.753Z,98925.81
2023-02-27T02:45:32.600Z,98929.13
2023-02-27T02:46:47.960Z,98932.63
2023-02-27T02:48:01.215Z,98930.84
2023-02-27T02:49:48.235Z,98926.91
2023-02-27T02:51:15.569Z,98918.38
2023-02-27T02:52:22.899Z,98932.09
2023-02-27T02:53:42.955Z,98924.97
2023-02-27T02:55:03.180Z,98934.00
2023-02-27T02:56:25.238Z,98928.38
2023-02-27T02:57:30.389Z,98925.69
2023-02-27T02:59:05.115Z,98914.72
2023-02-27T03:00:33.764Z,98926.38
2023-02-27T03:01:37.981Z,98924.03
2023-02-27T03:02:45.074Z,98931.72
2023-02-27T03:03:57.457Z,98943.03
2023-02-27T03:05:23.710Z,98943.03
2023-02-27T03:06:33.595Z,98937.03
2023-02-27T03:07:39.232Z,98939.69
2023-02-27T03:08:43.875Z,98949.72
2023-02-27T03:10:08.743Z,98940.53
2023-02-27T03:11:10.638Z,98925.72
2023-02-27T03:12:14.252Z,98945.72
2023-02-27T03:13:20.930Z,98931.03
2023-02-27T03:14:42.007Z,98950.84
2023-02-27T03:15:46.513Z,98949.19
2023-02-27T03:16:50.269Z,98948.19
2023-02-27T03:17:55.782Z,98934.50
2023-02-27T03:19:11.525Z,98941.53
2023-02-27T03:20:16.545Z,98950.38
2023-02-27T03:21:43.133Z,98949.06
2023-02-27T03:22:46.397Z,98939.72
2023-02-27T03:23:48.454Z,98949.41
2023-02-27T03:24:54.102Z,98954.38
2023-02-27T03:25:58.064Z,98943.03
2023-02-27T03:27:02.928Z,98957.69
2023-02-27T03:28:09.934Z,98956.69
2023-02-27T03:29:14.526Z,98948.69
2023-02-27T03:30:41.546Z,98958.22
2023-02-27T03:32:18.466Z,98949.72
2023-02-27T03:33:31.751Z,98944.38
2023-02-27T03:34:34.445Z,98949.53
2023-02-27T03:35:59.024Z,98950.06
2023-02-27T03:37:03.766Z,98946.53
2023-02-27T03:38:25.213Z,98946.91
2023-02-27T03:39:48.894Z,98946.72
2023-02-27T03:41:08.319Z,98947.88
2023-02-27T03:42:31.023Z,98952.88
2023-02-27T03:44:08.955Z,98949.22
2023-02-27T03:45:50.665Z,98941.06
2023-02-27T03:46:52.196Z,98957.06
2023-02-27T03:47:54.042Z,98941.72
2023-02-27T03:48:55.613Z,98948.38
2023-02-27T03:49:57.170Z,98944.25
2023-02-27T03:50:58.706Z,98940.56
2023-02-27T03:52:00.212Z,98950.88
2023-02-27T03:53:01.869Z,98962.22
2023-02-27T03:54:10.603Z,98955.06
2023-02-27T03:55:14.890Z,98948.22
2023-02-27T03:56:16.930Z,98946.06
2023-02-27T03:57:18.506Z,98958.91
2023-02-27T03:58:19.990Z,98954.41
2023-02-27T03:59:22.394Z,98958.41
2023-02-27T04:00:24.969Z,98948.06
2023-02-27T04:01:26.933Z,98946.72
2023-02-27T04:02:28.666Z,98945.22
2023-02-27T04:03:30.880Z,98964.06
2023-02-27T04:04:32.781Z,98950.06
2023-02-27T04:05:34.320Z,98950.72
2023-02-27T04:07:12.197Z,98955.72
2023-02-27T04:08:27.777Z,98952.72
2023-02-27T04:09:50.682Z,98961.25
2023-02-27T04:11:27.819Z,98956.72
2023-02-27T04:12:56.075Z,98963.41
2023-02-27T04:14:26.913Z,98962.72
2023-02-27T04:15:47.037Z,98958.22
2023-02-27T04:17:03.537Z,98962.53
2023-02-27T04:18:29.757Z,98969.34
2023-02-27T04:19:39.930Z,98964.88
2023-02-27T04:20:46.199Z,98963.53
2023-02-27T04:22:28.999Z,98969.72
2023-02-27T04:23:37.710Z,98960.22
2023-02-27T04:24:46.305Z,98958.69
2023-02-27T04:26:12.052Z,98967.03
2023-02-27T04:27:23.188Z,98970.03
2023-02-27T04:28:28.013Z,98962.03
2023-02-27T04:29:48.243Z,98956.50
2023-02-27T04:31:01.065Z,98971.34
2023-02-27T04:32:06.566Z,98970.03
2023-02-27T04:33:10.743Z,98969.03
2023-02-27T04:34:23.837Z,98964.97
2023-02-27T04:35:37.378Z,98962.81
2023-02-27T04:36:49.690Z,98977.66
2023-02-27T04:37:55.204Z,98966.84
2023-02-27T04:39:09.742Z,98973.03
2023-02-27T04:40:12.861Z,98976.72
2023-02-27T04:41:19.470Z,98978.91
2023-02-27T04:42:24.168Z,98981.41
2023-02-27T04:43:26.261Z,98965.41
2023-02-27T04:44:28.296Z,98969.06
2023-02-27T04:45:29.900Z,98975.56
2023-02-27T04:46:31.422Z,98966.06
2023-02-27T04:47:36.900Z,98974.09
2023-02-27T04:48:57.144Z,98975.75
2023-02-27T04:50:01.773Z,98972.91
2023-02-27T04:51:11.449Z,98972.22
2023-02-27T04:52:18.865Z,98978.44
2023-02-27T04:53:23.782Z,98972.75
2023-02-27T04:54:30.245Z,98983.06
2023-02-27T04:55:36.338Z,98981.75
2023-02-27T04:56:44.628Z,98985.59
2023-02-27T04:57:49.811Z,98975.91
2023-02-27T04:58:54.025Z,98979.56
2023-02-27T04:59:56.042Z,98975.06
2023-02-27T05:01:03.810Z,98980.72
2023-02-27T05:02:18.546Z,98979.75
2023-02-27T05:03:24.501Z,98979.22
2023-02-27T05:04:27.269Z,98976.50
2023-02-27T05:05:30.553Z,98980.00
2023-02-27T05:06:33.800Z,98989.81
2023-02-27T05:08:04.322Z,98988.31
2023-02-27T05:09:19.293Z,98995.31
2023-02-27T05:10:35.888Z,98985.81
2023-02-27T05:11:46.146Z,98998.28
2023-02-27T05:12:53.060Z,98998.94
2023-02-27T05:14:01.192Z,99004.22
2023-02-27T05:15:16.196Z,98998.25
2023-02-27T05:16:33.229Z,99002.66
2023-02-27T05:17:37.458Z,99000.69
2023-02-27T05:18:39.063Z,99004.06
2023-02-27T05:19:41.742Z,98991.84
2023-02-27T05:21:26.576Z,99001.03
2023-02-27T05:22:47.476Z,98984.22
2023-02-27T05:24:03.859Z,99009.66
2023-02-27T05:25:29.280Z,99002.81
2023-02-27T05:26:55.242Z,99012.47
2023-02-27T05:28:01.942Z,99004.16
2023-02-27T05:29:09.581Z,99004.25
2023-02-27T05:30:32.274Z,99014.56
2023-02-27T05:31:49.686Z,99010.63
2023-02-27T05:32:54.821Z,99009.97
2023-02-27T05:34:04.318Z,99009.72
2023-02-27T05:35:26.282Z,99011.91
2023-02-27T05:36:40.576Z,99012.81
2023-02-27T05:37:56.805Z,99010.16
2023-02-27T05:39:08.908Z,99000.50
2023-02-27T05:40:12.938Z,99004.16
2023-02-27T05:41:19.356Z,98997.00
2023-02-27T05:42:28.703Z,99013.66
2023-02-27T05:43:35.686Z,99020.84
2023-02-27T05:44:42.788Z,99021.00
2023-02-27T05:45:45.823Z,99017.53
2023-02-27T05:46:52.333Z,99020.41
2023-02-27T05:47:57.618Z,99007.88
2023-02-27T05:49:05.027Z,99019.69
2023-02-27T05:50:10.229Z,99016.88
2023-02-27T05:51:12.104Z,99018.03
2023-02-27T05:52:16.144Z,99017.38
2023-02-27T05:53:18.954Z,99021.69
2023-02-27T05:54:24.752Z,99025.38
2023-02-27T05:55:38.428Z,99032.72
2023-02-27T05:56:40.093Z,99029.88
2023-02-27T05:58:09.014Z,99018.16
2023-02-27T05:59:14.668Z,99025.19
2023-02-27T06:00:20.457Z,99032.50
2023-02-27T06:01:24.922Z,99042.69
2023-02-27T06:02:26.551Z,99030.97
2023-02-27T06:03:28.664Z,99034.25
2023-02-27T06:04:30.242Z,99037.69
2023-02-27T06:05:31.989Z,99034.19
2023-02-27T06:06:33.519Z,99041.84
2023-02-27T06:07:35.139Z,99035.19
2023-02-27T06:08:36.706Z,99034.69
2023-02-27T06:09:38.367Z,99042.53
2023-02-27T06:10:39.927Z,99039.19
2023-02-27T06:11:44.143Z,99022.81
2023-02-27T06:12:45.785Z,99034.34
2023-02-27T06:13:47.315Z,99031.38
2023-02-27T06:14:48.853Z,99029.50
2023-02-27T06:15:50.371Z,99042.75
2023-02-27T06:16:52.048Z,99043.88
2023-02-27T06:17:53.625Z,99042.28
2023-02-27T06:18:55.569Z,99049.41
2023-02-27T06:19:57.334Z,99054.03
2023-02-27T06:20:58.901Z,99040.16
2023-02-27T06:22:00.566Z,99064.09
2023-02-27T06:23:02.195Z,99053.75
2023-02-27T06:24:03.919Z,99059.63
2023-02-27T06:25:05.965Z,99047.78
2023-02-27T06:26:07.509Z,99044.28
2023-02-27T06:27:09.371Z,99056.44
2023-02-27T06:28:11.369Z,99063.44
2023-02-27T06:29:13.704Z,99069.09
2023-02-27T06:30:15.397Z,99059.47
2023-02-27T06:31:17.039Z,99066.94
2023-02-27T06:32:18.729Z,99046.28
2023-02-27T06:33:20.290Z,99053.16
2023-02-27T06:34:21.911Z,99051.84
2023-02-27T06:35:23.498Z,99059.19
2023-02-27T06:36:25.326Z,99062.53
2023-02-27T06:37:27.250Z,99062.56
2023-02-27T06:38:28.824Z,99058.38
2023-02-27T06:39:30.326Z,99051.59
2023-02-27T06:40:32.004Z,99059.28
2023-02-27T06:41:33.999Z,99056.63
2023-02-27T06:42:35.579Z,99061.28
2023-02-27T06:43:37.272Z,99066.81
2023-02-27T06:44:38.826Z,99059.84
2023-02-27T06:45:40.329Z,99075.50
2023-02-27T06:46:42.044Z,99045.78
2023-02-27T06:47:43.606Z,99050.31
2023-02-27T06:48:45.618Z,99046.97
2023-02-27T06:49:47.139Z,99060.31
2023-02-27T06:50:56.216Z,99063.50
2023-02-27T06:51:57.765Z,99068.38
2023-02-27T06:52:59.291Z,99073.72
2023-02-27T06:54:00.848Z,99069.56
2023-02-27T06:55:02.411Z,99059.38
2023-02-27T06:56:04.149Z,99073.59
2023-02-27T06:57:05.673Z,99072.56
2023-02-27T06:58:07.211Z,99067.06
2023-02-27T06:59:08.745Z,99053.66
2023-02-27T07:00:12.570Z,99064.31
2023-02-27T07:01:14.591Z,99056.00
2023-02-27T07:02:16.346Z,99061.81
2023-02-27T07:03:17.901Z,99070.94
2023-02-27T07:04:19.480Z,99050.59
2023-02-27T07:05:21.046Z,99055.94
2023-02-27T07:07:32.240Z,99069.56
2023-02-27T07:07:44.027Z,99058.56
2023-02-27T07:09:01.165Z,99059.66
2023-02-27T07:10:11.181Z,99065.19
2023-02-27T07:11:12.759Z,99063.72
2023-02-27T07:12:14.342Z,99070.72
2023-02-27T07:13:19.376Z,99059.06
2023-02-27T07:14:21.239Z,99069.28
2023-02-27T07:15:22.862Z,99057.28
2023-02-27T07:16:24.424Z,99067.44
2023-02-27T07:17:26.021Z,99062.66
2023-02-27T07:18:27.671Z,99055.31
2023-02-27T07:19:29.305Z,99048.25
2023-02-27T07:20:30.915Z,99063.47
2023-02-27T07:21:32.415Z,99065.78
2023-02-27T07:22:34.190Z,99059.19
2023-02-27T07:23:35.950Z,99055.56
2023-02-27T07:24:37.504Z,99060.66
2023-02-27T07:25:39.007Z,99070.34
2023-02-27T07:26:40.521Z,99062.50
2023-02-27T07:27:44.414Z,99062.72
2023-02-27T07:28:45.931Z,99053.19
2023-02-27T07:29:47.494Z,99051.69
2023-02-27T07:30:49.104Z,99065.72
2023-02-27T07:31:50.702Z,99061.25
2023-02-27T07:32:52.404Z,99060.63
2023-02-27T07:33:53.885Z,99063.63
2023-02-27T07:34:55.391Z,99069.13
2023-02-27T07:35:57.055Z,99066.97
2023-02-27T07:36:58.689Z,99056.66
2023-02-27T07:38:03.951Z,99063.66
2023-02-27T07:39:05.895Z,99066.16
2023-02-27T07:40:07.746Z,99056.13
2023-02-27T07:41:15.883Z,99062.44
2023-02-27T07:42:22.853Z,99059.44
2023-02-27T07:43:24.553Z,99061.25
2023-02-27T07:44:26.088Z,99068.69
2023-02-27T07:45:27.645Z,99066.38
2023-02-27T07:46:29.517Z,99069.06
2023-02-27T07:47:31.696Z,99073.72
2023-02-27T07:48:33.348Z,99061.75
2023-02-27T07:49:34.922Z,99075.44
2023-02-27T07:50:36.753Z,99070.94
2023-02-27T07:51:38.267Z,99044.44
2023-02-27T07:52:43.145Z,99065.72
2023-02-27T07:53:44.731Z,99075.44
2023-02-27T07:54:46.210Z,99068.00
2023-02-27T07:55:47.800Z,99070.81
2023-02-27T07:56:49.506Z,99074.16
2023-02-27T07:57:51.048Z,99069.75
2023-02-27T07:58:52.585Z,99070.78
2023-02-27T07:59:54.092Z,99072.66
2023-02-27T08:00:55.603Z,99062.28
2023-02-27T08:01:57.101Z,99074.50
2023-02-27T08:02:58.702Z,99075.81
2023-02-27T08:04:00.214Z,99079.34
2023-02-27T08:05:01.712Z,99074.97
2023-02-27T08:06:03.314Z,99076.81
2023-02-27T08:07:05.191Z,99083.00
2023-02-27T08:08:07.021Z,99071.66
2023-02-27T08:09:08.676Z,99074.63
2023-02-27T08:10:10.920Z,99092.63
2023-02-27T08:11:12.421Z,99072.38
2023-02-27T08:12:13.905Z,99076.19
2023-02-27T08:13:17.895Z,99059.44
2023-02-27T08:14:22.122Z,99049.03
2023-02-27T08:15:24.632Z,99038.72
2023-02-27T08:16:26.746Z,99056.56
2023-02-27T08:17:28.531Z,99054.50
2023-02-27T08:18:30.251Z,99044.06
2023-02-27T08:19:31.813Z,99039.38
2023-02-27T08:20:33.329Z,99039.69
2023-02-27T08:21:34.966Z,99045.03
2023-02-27T08:22:36.526Z,99058.50
2023-02-27T08:23:38.047Z,99051.03
2023-02-27T08:24:40.582Z,99052.59
2023-02-27T08:25:42.104Z,99052.97
2023-02-27T08:26:43.643Z,99053.16
2023-02-27T08:27:45.196Z,99060.38
2023-02-27T08:28:46.842Z,99055.41
2023-02-27T08:29:51.090Z,99064.56
2023-02-27T08:30:52.784Z,99062.88
2023-02-27T08:31:54.360Z,99066.25
2023-02-27T08:32:56.076Z,99060.56
2023-02-27T08:34:04.422Z,99071.91
2023-02-27T08:35:10.634Z,99071.31
2023-02-27T08:36:12.226Z,99069.44
2023-02-27T08:37:13.765Z,99068.81
2023-02-27T08:38:15.675Z,99067.25
2023-02-27T08:39:18.033Z,99071.97
2023-02-27T08:40:22.462Z,99072.22
2023-02-27T08:41:24.057Z,99077.50
2023-02-27T08:42:26.919Z,99066.91
2023-02-27T08:43:28.885Z,99065.56
2023-02-27T08:44:30.453Z,99068.38
2023-02-27T08:45:32.092Z,99066.47
2023-02-27T08:46:36.101Z,99068.16
2023-02-27T08:47:37.715Z,99059.13
2023-02-27T08:48:39.739Z,99066.22
2023-02-27T08:49:41.306Z,99068.69
2023-02-27T08:50:42.967Z,99066.63
2023-02-27T08:51:44.498Z,99057.34
2023-02-27T08:52:46.041Z,99067.69
2023-02-27T08:53:47.915Z,99065.34
2023-02-27T08:54:49.466Z,99073.81
2023-02-27T08:55:51.294Z,99062.25
2023-02-27T08:56:52.841Z,99050.69
2023-02-27T08:57:54.401Z,99067.97
2023-02-27T08:58:56.317Z,99065.44
2023-02-27T08:59:57.943Z,99062.53
2023-02-27T09:00:59.556Z,99071.84
2023-02-27T09:02:01.119Z,99083.69
2023-02-27T09:03:02.788Z,99068.41
2023-02-27T09:04:04.584Z,99078.69
2023-02-27T09:05:06.336Z,99080.00
2023-02-27T09:06:08.028Z,99085.97
2023-02-27T09:07:09.550Z,99085.00
2023-02-27T09:08:11.752Z,99068.69
2023-02-27T09:09:13.298Z,99076.00
2023-02-27T09:10:14.971Z,99078.88
2023-02-27T09:11:17.197Z,99083.75
2023-02-27T09:12:18.694Z,99082.59
2023-02-27T09:13:21.998Z,99086.09
2023-02-27T09:14:24.227Z,99083.25
2023-02-27T09:15:25.883Z,99079.72
2023-02-27T09:16:27.828Z,99083.84
2023-02-27T09:17:29.536Z,99086.09
2023-02-27T09:18:31.144Z,99083.66
2023-02-27T09:19:32.782Z,99080.97
2023-02-27T09:20:35.954Z,99084.28
2023-02-27T09:21:37.587Z,99075.94
2023-02-27T09:22:39.297Z,99074.06
2023-02-27T09:23:41.224Z,99080.03
2023-02-27T09:24:42.821Z,99072.06
2023-02-27T09:25:44.815Z,99051.31
2023-02-27T09:26:46.869Z,99080.03
2023-02-27T09:27:48.504Z,99075.81
2023-02-27T09:28:50.063Z,99094.00
2023-02-27T09:29:55.604Z,99069.91
2023-02-27T09:31:01.195Z,99079.56
2023-02-27T09:32:02.851Z,99076.38
2023-02-27T09:33:04.440Z,99083.22
2023-02-27T09:34:06.011Z,99085.00
2023-02-27T09:35:09.342Z,99065.78
2023-02-27T09:36:10.918Z,99087.94
2023-02-27T09:37:12.530Z,99082.94
2023-02-27T09:38:14.034Z,99088.88
2023-02-27T09:39:15.654Z,99092.72
2023-02-27T09:40:25.475Z,99101.16
2023-02-27T09:41:48.219Z,99094.25
2023-02-27T09:42:49.788Z,99074.78
2023-02-27T09:43:51.826Z,99090.41
2023-02-27T09:44:57.914Z,99090.63
2023-02-27T09:45:59.488Z,99082.06
2023-02-27T09:47:01.187Z,99097.16
2023-02-27T09:48:33.498Z,99090.47
2023-02-27T09:49:41.686Z,99098.38
2023-02-27T09:50:44.644Z,99086.66
2023-02-27T09:51:46.181Z,99094.28
2023-02-27T09:52:47.709Z,99099.44
2023-02-27T09:53:51.627Z,99087.03
2023-02-27T09:54:55.189Z,99092.28
2023-02-27T09:56:00.815Z,99097.56
2023-02-27T09:57:03.935Z,99088.97
2023-02-27T09:58:23.192Z,99112.44
2023-02-27T09:59:42.480Z,99116.41
2023-02-27T10:01:02.519Z,99101.00
2023-02-27T10:02:13.875Z,99114.28
2023-02-27T10:03:37.058Z,99108.00
2023-02-27T10:04:54.325Z,99112.50
2023-02-27T10:05:59.238Z,99124.78
2023-02-27T10:07:07.981Z,99121.84
2023-02-27T10:08:09.428Z,99120.25
2023-02-27T10:09:17.530Z,99113.69
2023-02-27T10:10:21.776Z,99121.38
2023-02-27T10:11:32.831Z,99124.28
2023-02-27T10:12:45.117Z,99130.03
2023-02-27T10:14:07.792Z,99125.16
2023-02-27T10:15:27.519Z,99120.00
2023-02-27T10:16:29.287Z,99126.44
2023-02-27T10:17:35.217Z,99076.28
2023-02-27T10:18:58.280Z,99127.34
2023-02-27T10:20:01.106Z,99130.66
2023-02-27T10:21:12.049Z,99122.94
2023-02-27T10:22:14.953Z,99121.41
2023-02-27T10:23:18.996Z,99118.66
2023-02-27T10:24:29.482Z,99109.13
2023-02-27T10:25:32.349Z,99114.94
2023-02-27T10:26:36.411Z,99121.16
2023-02-27T10:27:37.960Z,99115.31
2023-02-27T10:28:39.802Z,99118.03
2023-02-27T10:29:41.793Z,99123.03
2023-02-27T10:30:54.792Z,99121.84
2023-02-27T10:32:26.898Z,99135.47
2023-02-27T10:33:37.546Z,99137.06
2023-02-27T10:34:40.052Z,99127.19
2023-02-27T10:35:44.027Z,99128.69
2023-02-27T10:36:45.956Z,99133.19
2023-02-27T10:37:53.085Z,99121.34
2023-02-27T10:38:56.779Z,99131.38
2023-02-27T10:40:00.535Z,99129.88
2023-02-27T10:41:02.489Z,99121.47
2023-02-27T10:42:06.743Z,99137.09
2023-02-27T10:43:08.315Z,99129.25
2023-02-27T10:44:10.531Z,99124.28
2023-02-27T10:45:15.815Z,99114.44
2023-02-27T10:46:21.042Z,99118.78
2023-02-27T10:47:23.869Z,99112.38
2023-02-27T10:48:25.456Z,99114.69
2023-02-27T10:49:27.348Z,99135.31
2023-02-27T10:50:33.771Z,99131.63
2023-02-27T10:51:38.324Z,99119.50
2023-02-27T10:53:00.183Z,99127.81
2023-02-27T10:54:19.406Z,99134.16
2023-02-27T10:55:38.937Z,99134.63
2023-02-27T10:56:40.477Z,99130.91
2023-02-27T10:57:42.474Z,99125.97
2023-02-27T10:58:44.000Z,99126.41
2023-02-27T10:59:59.761Z,99128.13
2023-02-27T11:01:06.263Z,99139.03
2023-02-27T11:02:16.347Z,99132.59
2023-02-27T11:03:25.998Z,99116.06
2023-02-27T11:04:40.598Z,99128.34
2023-02-27T11:05:42.277Z,99110.56
2023-02-27T11:06:43.802Z,99119.88
2023-02-27T11:07:45.322Z,99112.38
2023-02-27T11:08:48.472Z,99116.25
2023-02-27T11:10:02.939Z,99115.91
2023-02-27T11:11:05.333Z,99111.75
2023-02-27T11:12:26.207Z,99117.34
2023-02-27T11:13:32.829Z,99108.28
2023-02-27T11:14:34.507Z,99110.50
2023-02-27T11:15:37.490Z,99119.94
2023-02-27T11:16:52.029Z,99110.44
2023-02-27T11:17:55.076Z,99105.00
2023-02-27T11:18:57.365Z,99107.75
2023-02-27T11:20:00.252Z,99110.13
2023-02-27T11:21:36.732Z,99116.22
2023-02-27T11:22:38.282Z,99114.44
2023-02-27T11:23:53.733Z,99106.47
2023-02-27T11:25:21.029Z,99105.00
2023-02-27T11:26:53.403Z,99120.50
2023-02-27T11:28:01.449Z,99117.38
2023-02-27T11:29:05.888Z,99120.72
2023-02-27T11:30:27.216Z,99107.72
2023-02-27T11:31:29.149Z,99122.94
2023-02-27T11:32:45.018Z,99110.66
2023-02-27T11:33:53.882Z,99117.94
2023-02-27T11:34:55.430Z,99109.22
2023-02-27T11:35:58.313Z,99118.19
2023-02-27T11:37:07.405Z,99096.22
2023-02-27T11:38:18.287Z,99116.78
2023-02-27T11:39:37.646Z,99102.25
2023-02-27T11:40:55.273Z,99112.88
2023-02-27T11:41:58.161Z,99117.13
2023-02-27T11:43:26.831Z,99105.22
2023-02-27T11:44:50.186Z,99084.53
2023-02-27T11:46:09.437Z,99105.31
2023-02-27T11:47:28.620Z,99110.94
2023-02-27T11:48:40.789Z,99107.59
2023-02-27T11:50:17.948Z,99098.16
2023-02-27T11:51:47.008Z,99096.25
2023-02-27T11:53:02.883Z,99105.56
2023-02-27T11:54:34.667Z,99103.03
2023-02-27T11:55:36.493Z,99085.78
2023-02-27T11:56:47.786Z,99104.56
2023-02-27T11:57:52.427Z,99090.59
2023-02-27T11:59:07.065Z,99098.84
2023-02-27T12:00:17.016Z,99102.91
2023-02-27T12:01:23.228Z,99095.44
2023-02-27T12:02:45.076Z,99095.03
2023-02-27T12:03:58.097Z,99077.19
2023-02-27T12:05:17.503Z,99087.88
2023-02-27T12:06:21.324Z,99082.19
2023-02-27T12:07:34.438Z,99090.06
2023-02-27T12:08:46.284Z,99081.88
2023-02-27T12:10:06.415Z,99083.31
2023-02-27T12:11:15.787Z,99081.38
2023-02-27T12:12:22.739Z,99086.56
2023-02-27T12:13:31.771Z,99064.38
2023-02-27T12:14:37.880Z,99069.53
2023-02-27T12:15:45.985Z,99078.72
2023-02-27T12:17:03.656Z,99070.66
2023-02-27T12:18:14.121Z,99071.28
2023-02-27T12:19:33.473Z,99075.28
2023-02-27T12:20:45.652Z,99053.47
2023-02-27T12:21:50.212Z,99056.69
2023-02-27T12:22:53.442Z,99054.75
2023-02-27T12:24:25.099Z,99071.00
2023-02-27T12:25:40.666Z,99043.09
2023-02-27T12:26:43.437Z,99045.22
2023-02-27T12:28:09.046Z,99054.66
2023-02-27T12:29:16.733Z,99067.22
2023-02-27T12:30:21.238Z,99055.31
2023-02-27T12:31:36.595Z,99067.25
2023-02-27T12:32:40.644Z,99055.19
2023-02-27T12:33:46.707Z,99059.56
2023-02-27T12:34:52.917Z,99054.94
2023-02-27T12:35:58.345Z,99063.91
2023-02-27T12:37:05.737Z,99045.22
2023-02-27T12:38:08.233Z,99045.41
2023-02-27T12:39:16.687Z,99057.44
2023-02-27T12:40:18.955Z,99037.63
2023-02-27T12:41:27.905Z,99059.84
2023-02-27T12:42:38.796Z,99053.69
2023-02-27T12:43:50.809Z,99059.91
2023-02-27T12:45:26.801Z,99046.34
2023-02-27T12:46:55.054Z,99041.66
2023-02-27T12:48:15.024Z,99057.63
2023-02-27T12:49:25.632Z,99058.72
2023-02-27T12:50:30.586Z,99056.34
2023-02-27T12:51:52.617Z,99066.00
2023-02-27T12:52:54.059Z,99052.63
2023-02-27T12:54:10.573Z,99054.19
2023-02-27T12:55:15.517Z,99050.13
2023-02-27T12:56:19.358Z,99058.16
2023-02-27T12:57:42.774Z,99038.56
2023-02-27T12:59:08.558Z,99057.44
2023-02-27T13:00:13.240Z,99063.72
2023-02-27T13:01:24.176Z,99047.25
2023-02-27T13:02:44.083Z,99062.13
2023-02-27T13:03:56.626Z,99058.25
2023-02-27T13:05:07.907Z,99062.75
2023-02-27T13:06:27.650Z,99063.25
2023-02-27T13:07:33.779Z,99058.81
2023-02-27T13:08:45.393Z,99060.09
2023-02-27T13:10:02.051Z,99054.84